Airport View

Enter AWOS ICAO identifier for current METAR.

ex. KFNL

KPDX 251653Z 09019G34KT 10SM FEW250 04/M09 A3052 RMK AO2 PK WND 08034/1645 SLP335 T00441094

25 Oct 2020 17:31

Phone: 503-284-6771

Other Area AWOS: KVUO - KTTD - KHIO - KSPB

TAF AMD KPDX 251509Z 2515/2612 09020G30KT P6SM SKC FM260300 09014G25KT P6SM SKC FM260800 09013KT P6SM SKC